Time;durP1;ratioP1;P1;durP2;ratioP2;P2;SDS_P1;SDS_P2;PMS_P1;PMS_P2;Temp;Humidity;BMP_temperature;BMP_pressure;BME280_temperature;BME280_humidity;BME280_pressure;Samples;Min_cycle;Max_cycle;Signal;HPM_P1;HPM_P2
2021/04/10 08:28:56;;;;;;;15.60;4.47;;;7.90;82.30;;;;;;4998985;28;20078;-87
2021/04/10 08:31:30;;;;;;;19.53;4.77;;;8.00;82.20;;;;;;4999414;28;20023;-89
2021/04/10 08:33:56;;;;;;;17.33;4.50;;;7.90;82.30;;;;;;4980363;28;20011;-90
2021/04/10 08:36:22;;;;;;;17.27;4.70;;;7.90;82.10;;;;;;4982683;28;20078;-89
2021/04/10 08:38:48;;;;;;;15.37;4.27;;;7.90;82.20;;;;;;4983237;28;20066;-94
2021/04/10 08:41:14;;;;;;;17.03;4.33;;;7.90;82.30;;;;;;4982946;28;20023;-91
2021/04/10 08:43:48;;;;;;;21.37;5.57;;;7.90;82.70;;;;;;4983001;28;20019;-91
2021/04/10 08:46:18;;;;;;;20.57;5.33;;;7.90;82.40;;;;;;4983099;28;20023;-91
2021/04/10 08:48:44;;;;;;;22.63;5.80;;;7.90;82.40;;;;;;4983114;28;20031;-88
2021/04/10 08:51:14;;;;;;;20.30;4.90;;;7.90;82.10;;;;;;4983213;28;20019;-90
2021/04/10 08:53:46;;;;;;;22.33;5.90;;;7.90;82.80;;;;;;4982793;28;20010;-89
2021/04/10 08:56:13;;;;;;;89.33;11.63;;;8.00;82.20;;;;;;4983180;28;20050;-88
2021/04/10 08:58:42;;;;;;;22.97;5.97;;;8.00;82.00;;;;;;4982997;28;20015;-90
2021/04/10 09:01:20;;;;;;;23.35;5.32;;;8.00;82.00;;;;;;4981962;28;20026;-91
2021/04/10 09:03:46;;;;;;;19.20;5.70;;;8.00;81.80;;;;;;4982893;28;20047;-89
2021/04/10 09:06:28;;;;;;;20.10;5.50;;;7.90;81.90;;;;;;4982897;28;20011;-90
2021/04/10 09:08:53;;;;;;;19.40;5.40;;;7.90;82.10;;;;;;4982820;28;20066;-89
2021/04/10 09:11:21;;;;;;;19.60;5.23;;;7.90;82.30;;;;;;4983122;28;20019;-89
2021/04/10 09:13:48;;;;;;;20.80;4.70;;;7.90;82.10;;;;;;4982664;28;20023;-89
2021/04/10 09:16:31;;;;;;;21.47;4.67;;;7.90;81.80;;;;;;4980770;28;20043;-90
2021/04/10 09:19:17;;;;;;;18.20;5.90;;;7.90;81.50;;;;;;4982959;28;20082;-91
2021/04/10 09:21:59;;;;;;;21.43;4.60;;;8.00;81.30;;;;;;4999271;28;20015;-89
2021/04/10 09:24:42;;;;;;;19.00;4.27;;;7.90;81.40;;;;;;4982547;28;20042;-89
2021/04/10 09:27:28;;;;;;;22.37;5.03;;;7.90;81.30;;;;;;4999156;28;20015;-89
2021/04/10 09:29:56;;;;;;;20.87;4.37;;;7.90;81.20;;;;;;4982972;28;20057;-89
2021/04/10 09:32:43;;;;;;;21.50;5.30;;;7.90;81.00;;;;;;4982987;28;20043;-89
2021/04/10 09:35:14;;;;;;;17.63;3.97;;;8.00;80.90;;;;;;4998857;28;20011;-90
2021/04/10 09:37:40;;;;;;;18.97;4.90;;;8.00;80.80;;;;;;4982595;28;20025;-89
2021/04/10 09:40:47;;;;;;;18.30;4.33;;;8.00;80.90;;;;;;4982651;28;20046;-91
2021/04/10 09:43:14;;;;;;;19.53;4.47;;;8.00;81.00;;;;;;4998508;28;20090;-92
2021/04/10 09:45:40;;;;;;;17.93;4.30;;;8.10;80.80;;;;;;4982676;28;20019;-90
2021/04/10 09:48:07;;;;;;;19.60;4.57;;;8.10;80.70;;;;;;4999710;28;20039;-91
2021/04/10 09:50:43;;;;;;;21.27;4.40;;;8.20;80.50;;;;;;4986233;28;20046;-90
2021/04/10 09:53:22;;;;;;;14.77;4.27;;;8.20;80.50;;;;;;4985967;28;20057;-89
2021/04/10 09:55:50;;;;;;;21.30;4.72;;;8.10;80.70;;;;;;4985976;28;20042;-92
2021/04/10 09:58:20;;;;;;;17.17;4.87;;;8.10;80.60;;;;;;4986274;28;20021;-91
2021/04/10 10:00:49;;;;;;;18.17;4.77;;;8.00;80.80;;;;;;4986340;28;20015;-90
2021/04/10 10:03:17;;;;;;;16.23;5.35;;;8.10;81.00;;;;;;4985975;28;20030;-90
2021/04/10 10:05:49;;;;;;;19.93;5.67;;;8.10;80.90;;;;;;4985988;28;20086;-92
2021/04/10 10:08:16;;;;;;;22.50;4.93;;;8.10;81.20;;;;;;4986097;28;20298;-90
2021/04/10 10:10:44;;;;;;;19.20;5.43;;;8.10;81.40;;;;;;4986045;28;20026;-91
2021/04/10 10:13:18;;;;;;;19.77;5.27;;;8.00;81.60;;;;;;4985739;28;20022;-90
2021/04/10 10:15:46;;;;;;;18.73;5.07;;;8.00;81.80;;;;;;4985906;28;20094;-90
2021/04/10 10:18:16;;;;;;;19.07;5.07;;;8.00;81.90;;;;;;4985865;28;20035;-91
2021/04/10 10:21:00;;;;;;;20.13;6.53;;;8.00;82.20;;;;;;4986082;28;20014;-89
2021/04/10 10:23:28;;;;;;;21.70;6.70;;;8.00;82.10;;;;;;4985693;28;20035;-91
2021/04/10 10:26:01;;;;;;;22.00;5.43;;;7.90;82.30;;;;;;4985629;28;20034;-92
2021/04/10 10:28:27;;;;;;;21.80;5.97;;;7.90;82.50;;;;;;4985680;28;20102;-92
2021/04/10 10:30:53;;;;;;;18.50;5.37;;;8.00;82.60;;;;;;4985552;28;20022;-91
2021/04/10 10:33:20;;;;;;;19.93;5.87;;;7.90;83.20;;;;;;4985525;28;20055;-93
2021/04/10 10:35:51;;;;;;;22.47;6.33;;;7.90;82.30;;;;;;4985457;28;20019;-91
2021/04/10 10:38:18;;;;;;;23.33;5.83;;;7.90;82.60;;;;;;4985399;28;20061;-90
2021/04/10 10:40:49;;;;;;;22.73;5.83;;;7.90;82.80;;;;;;4985553;28;20038;-91
2021/04/10 10:43:16;;;;;;;21.20;5.93;;;7.90;82.80;;;;;;4985351;28;20015;-91
2021/04/10 10:45:50;;;;;;;23.37;5.60;;;7.90;82.90;;;;;;4985373;28;20034;-90
2021/04/10 10:48:34;;;;;;;19.00;5.93;;;7.90;82.90;;;;;;4985392;28;20042;-90
2021/04/10 10:50:59;;;;;;;22.30;5.50;;;7.90;83.00;;;;;;4985126;28;20057;-90
2021/04/10 10:53:28;;;;;;;23.07;6.23;;;7.90;83.10;;;;;;4985192;28;20003;-91
2021/04/10 10:56:08;;;;;;;24.50;6.00;;;7.90;82.90;;;;;;4985212;28;20027;-90
2021/04/10 10:58:52;;;;;;;20.40;5.70;;;7.90;83.30;;;;;;4984829;28;20095;-92
2021/04/10 11:01:20;;;;;;;19.90;5.77;;;7.90;83.20;;;;;;4985199;28;20019;-90
2021/04/10 11:03:58;;;;;;;19.67;5.10;;;7.90;83.30;;;;;;4984838;28;20019;-90
2021/04/10 11:06:48;;;;;;;23.20;5.83;;;7.90;84.10;;;;;;4984982;28;20019;-91
2021/04/10 11:09:18;;;;;;;20.80;5.47;;;7.90;83.40;;;;;;4975807;28;20047;-92
2021/04/10 11:11:46;;;;;;;25.97;5.57;;;7.90;83.60;;;;;;4985163;28;20048;-90
2021/04/10 11:14:19;;;;;;;20.47;5.73;;;7.80;83.60;;;;;;4984813;28;20062;-90
2021/04/10 11:16:46;;;;;;;23.43;5.60;;;7.80;84.10;;;;;;4984849;28;20053;-91
2021/04/10 11:19:12;;;;;;;18.77;5.47;;;7.80;83.90;;;;;;4984830;28;20015;-91
2021/04/10 11:21:38;;;;;;;19.20;5.73;;;7.80;84.00;;;;;;4984874;28;20011;-91
2021/04/10 11:24:04;;;;;;;21.93;5.77;;;7.80;84.10;;;;;;4984658;28;20030;-90
2021/04/10 11:26:40;;;;;;;17.83;5.10;;;7.90;84.20;;;;;;4984445;28;20026;-91
2021/04/10 11:29:23;;;;;;;22.20;5.57;;;7.90;84.10;;;;;;4984523;28;20015;-90
2021/04/10 11:32:16;;;;;;;20.00;5.27;;;7.80;84.10;;;;;;4984718;28;20041;-91
2021/04/10 11:34:45;;;;;;;17.83;5.10;;;7.90;84.20;;;;;;4984376;28;20015;-91
2021/04/10 11:37:11;;;;;;;21.77;6.60;;;7.90;84.00;;;;;;4984361;28;20054;-91
2021/04/10 11:39:57;;;;;;;20.47;5.87;;;7.90;84.00;;;;;;4984217;28;20043;-92
2021/04/10 11:42:31;;;;;;;21.23;6.27;;;7.90;84.20;;;;;;4984490;28;20038;-90
2021/04/10 11:45:19;;;;;;;20.07;5.87;;;7.90;84.20;;;;;;4983916;28;20022;-90
2021/04/10 11:47:45;;;;;;;22.70;6.20;;;7.90;84.30;;;;;;4990161;28;20047;-89
2021/04/10 11:50:17;;;;;;;18.87;6.47;;;7.90;84.30;;;;;;4984078;28;20026;-90
2021/04/10 11:52:45;;;;;;;19.00;5.80;;;7.90;84.40;;;;;;4984175;28;20042;-92
2021/04/10 11:55:19;;;;;;;20.87;6.00;;;7.90;84.60;;;;;;4983767;28;20019;-91
2021/04/10 11:57:57;;;;;;;20.73;5.37;;;8.00;84.80;;;;;;4983714;28;20023;-92
2021/04/10 12:00:25;;;;;;;21.40;6.20;;;7.90;84.90;;;;;;4984041;28;20022;-90
2021/04/10 12:02:51;;;;;;;20.73;6.67;;;7.90;85.00;;;;;;4984004;28;20014;-91
2021/04/10 12:05:21;;;;;;;22.77;5.73;;;7.90;85.10;;;;;;4983486;28;20090;-91
2021/04/10 12:08:05;;;;;;;18.80;5.27;;;7.90;85.00;;;;;;4984036;28;20026;-92
2021/04/10 12:10:33;;;;;;;18.63;5.60;;;7.90;85.10;;;;;;4983192;28;20023;-92
2021/04/10 12:12:59;;;;;;;18.93;5.60;;;7.90;85.00;;;;;;4983594;28;20015;-91
2021/04/10 12:15:36;;;;;;;18.87;5.47;;;7.90;85.00;;;;;;4983559;28;20021;-90
2021/04/10 12:18:09;;;;;;;19.33;6.03;;;7.90;85.50;;;;;;4983588;28;20039;-92
2021/04/10 12:20:36;;;;;;;17.63;5.93;;;7.90;85.50;;;;;;4983648;28;20018;-91
2021/04/10 12:23:02;;;;;;;20.87;5.93;;;7.90;85.40;;;;;;4983669;28;20090;-92
2021/04/10 12:25:28;;;;;;;19.00;6.50;;;8.00;85.70;;;;;;4983331;28;20010;-92
2021/04/10 12:27:54;;;;;;;20.60;5.57;;;8.00;85.90;;;;;;4983453;28;20054;-91
2021/04/10 12:30:23;;;;;;;20.50;5.93;;;8.00;86.00;;;;;;4983451;28;20026;-91
2021/04/10 12:32:48;;;;;;;18.48;5.90;;;8.00;86.10;;;;;;4983692;28;20019;-91
2021/04/10 12:35:14;;;;;;;22.17;6.13;;;8.00;86.20;;;;;;4983274;28;20067;-92
2021/04/10 12:37:40;;;;;;;18.23;5.87;;;8.00;86.40;;;;;;4983349;28;20014;-92
2021/04/10 12:40:07;;;;;;;19.30;6.80;;;8.10;86.60;;;;;;4983196;28;20103;-91
2021/04/10 12:42:34;;;;;;;19.10;6.83;;;8.10;86.30;;;;;;4983420;28;20019;-90
2021/04/10 12:45:00;;;;;;;20.17;6.20;;;8.10;86.30;;;;;;4983205;28;20090;-90
2021/04/10 12:47:26;;;;;;;17.20;5.63;;;8.10;86.40;;;;;;4983212;28;20045;-91
2021/04/10 12:49:51;;;;;;;19.43;6.60;;;8.20;86.30;;;;;;4983390;28;20026;-90
2021/04/10 12:52:17;;;;;;;24.50;8.50;;;8.10;86.30;;;;;;4982930;28;20038;-90
2021/04/10 12:54:44;;;;;;;19.60;7.13;;;8.10;86.30;;;;;;4983079;28;20026;-91
2021/04/10 12:57:11;;;;;;;21.30;7.20;;;8.20;86.20;;;;;;4982879;28;20019;-92
2021/04/10 12:59:37;;;;;;;23.93;8.07;;;8.20;86.30;;;;;;4983227;28;20037;-91
2021/04/10 13:02:03;;;;;;;18.53;7.33;;;8.20;86.40;;;;;;4983252;28;20039;-91
2021/04/10 13:04:29;;;;;;;21.13;7.23;;;8.20;86.30;;;;;;4982672;28;20015;-92
2021/04/10 13:06:56;;;;;;;23.33;8.67;;;8.20;86.40;;;;;;4982828;28;20027;-92
2021/04/10 13:09:22;;;;;;;22.87;8.50;;;8.20;86.10;;;;;;4982765;28;20095;-91
2021/04/10 13:11:48;;;;;;;23.33;9.10;;;8.20;86.30;;;;;;4983165;28;20046;-91
2021/04/10 13:14:13;;;;;;;25.67;8.67;;;8.30;86.10;;;;;;4982878;28;20011;-91
2021/04/10 13:16:39;;;;;;;26.63;10.33;;;8.30;85.90;;;;;;4982808;28;20015;-90
2021/04/10 13:19:05;;;;;;;22.33;8.50;;;8.20;85.80;;;;;;4982786;28;20011;-91
2021/04/10 13:21:31;;;;;;;24.00;8.90;;;8.20;86.10;;;;;;4983298;28;20047;-90
2021/04/10 13:23:58;;;;;;;24.40;9.17;;;8.20;86.00;;;;;;4986800;28;20038;-91
2021/04/10 13:26:24;;;;;;;21.60;8.27;;;8.20;86.40;;;;;;4986423;28;20030;-89
2021/04/10 13:28:50;;;;;;;23.90;9.70;;;8.20;86.40;;;;;;4986794;28;20015;-89
2021/04/10 13:31:16;;;;;;;23.97;8.63;;;8.30;86.40;;;;;;4986483;28;20038;-91
2021/04/10 13:33:42;;;;;;;23.17;9.13;;;8.30;86.60;;;;;;4986807;28;20042;-91
2021/04/10 13:36:08;;;;;;;26.37;10.53;;;8.30;86.60;;;;;;4986473;28;20014;-88
2021/04/10 13:38:34;;;;;;;24.37;9.40;;;8.30;86.60;;;;;;4985748;28;20050;-90
2021/04/10 13:41:01;;;;;;;23.53;9.73;;;8.30;86.80;;;;;;4986565;28;20015;-91
2021/04/10 13:43:26;;;;;;;23.10;9.97;;;8.30;86.80;;;;;;4986559;28;20039;-91
2021/04/10 13:45:53;;;;;;;22.50;9.17;;;8.30;86.70;;;;;;4986110;28;20016;-91
2021/04/10 13:48:18;;;;;;;23.87;9.37;;;8.30;87.00;;;;;;4986437;28;20019;-87
2021/04/10 13:50:44;;;;;;;23.17;9.47;;;8.30;86.90;;;;;;4986389;28;20110;-90
2021/04/10 13:53:10;;;;;;;22.23;10.00;;;8.30;87.10;;;;;;4986433;28;20011;-89
2021/04/10 13:55:35;;;;;;;21.30;9.73;;;8.30;88.00;;;;;;4985966;28;20034;-90
2021/04/10 13:58:01;;;;;;;23.07;9.07;;;8.30;87.10;;;;;;4985926;28;20039;-89
2021/04/10 14:00:27;;;;;;;25.97;9.43;;;8.30;87.30;;;;;;4986068;28;20018;-89
2021/04/10 14:02:52;;;;;;;24.00;8.97;;;8.40;87.20;;;;;;4985843;28;20051;-91
2021/04/10 14:05:20;;;;;;;23.67;9.83;;;8.30;87.20;;;;;;4986070;28;20019;-90
2021/04/10 14:07:46;;;;;;;25.57;9.73;;;8.30;87.20;;;;;;4985707;28;20015;-89
2021/04/10 14:10:22;;;;;;;24.17;9.50;;;8.40;87.10;;;;;;4986112;28;20027;-89
2021/04/10 14:12:49;;;;;;;23.70;9.17;;;8.30;87.20;;;;;;4986106;28;20015;-91
2021/04/10 14:15:24;;;;;;;23.10;9.30;;;8.30;87.30;;;;;;4985689;28;20039;-90
2021/04/10 14:17:50;;;;;;;23.97;8.53;;;8.30;87.30;;;;;;4985729;28;20025;-89
2021/04/10 14:20:19;;;;;;;25.87;9.53;;;8.30;87.30;;;;;;4985826;28;20026;-89
2021/04/10 14:22:45;;;;;;;23.93;9.13;;;8.20;87.50;;;;;;4985680;28;20118;-89
2021/04/10 14:25:12;;;;;;;26.80;9.27;;;8.30;87.40;;;;;;4985482;28;20018;-90
2021/04/10 14:27:39;;;;;;;24.20;9.70;;;8.30;87.40;;;;;;4985399;28;20018;-89
2021/04/10 14:30:07;;;;;;;24.30;9.67;;;8.20;87.30;;;;;;4985675;28;20063;-91
2021/04/10 14:32:33;;;;;;;24.52;9.85;;;8.20;87.40;;;;;;4985409;28;20022;-92
2021/04/10 14:34:59;;;;;;;24.80;10.43;;;8.30;87.30;;;;;;4984704;28;20050;-89
2021/04/10 14:37:24;;;;;;;22.83;9.47;;;8.30;87.40;;;;;;4985427;28;20011;-92
2021/04/10 14:39:51;;;;;;;23.37;9.77;;;8.30;87.50;;;;;;4985560;28;20039;-90
2021/04/10 14:42:17;;;;;;;24.83;9.90;;;8.30;87.50;;;;;;4985284;28;20015;-91
2021/04/10 14:44:42;;;;;;;21.40;9.47;;;8.30;87.70;;;;;;4985049;28;20071;-91
2021/04/10 14:47:08;;;;;;;28.10;11.27;;;8.30;87.70;;;;;;4984936;28;20055;-93
2021/04/10 14:49:34;;;;;;;27.97;10.87;;;8.20;87.80;;;;;;4985431;28;20030;-92
2021/04/10 14:51:59;;;;;;;22.93;10.57;;;8.30;87.90;;;;;;4985241;28;20011;-91
2021/04/10 14:54:26;;;;;;;27.37;12.20;;;8.30;88.00;;;;;;4985131;28;20043;-90
2021/04/10 14:56:51;;;;;;;27.73;11.20;;;8.20;88.10;;;;;;4985053;28;20091;-90
2021/04/10 14:59:17;;;;;;;26.47;11.07;;;8.20;88.50;;;;;;4985015;28;20018;-91
2021/04/10 15:01:43;;;;;;;21.80;10.40;;;8.20;88.30;;;;;;4985256;28;20015;-90
2021/04/10 15:04:08;;;;;;;26.03;11.20;;;8.30;88.50;;;;;;4984898;28;20069;-91
2021/04/10 15:06:34;;;;;;;25.23;11.20;;;8.30;88.50;;;;;;4984661;28;20033;-91
2021/04/10 15:09:00;;;;;;;24.23;11.00;;;8.20;88.40;;;;;;4984755;28;20039;-90
2021/04/10 15:11:26;;;;;;;27.07;11.17;;;8.20;88.70;;;;;;4984945;28;20091;-92
2021/04/10 15:13:54;;;;;;;26.97;10.80;;;8.20;88.80;;;;;;4984898;28;20022;-93
2021/04/10 15:16:23;;;;;;;31.27;12.30;;;8.20;88.70;;;;;;4984495;28;20034;-93
2021/04/10 15:18:49;;;;;;;28.73;12.43;;;8.20;88.80;;;;;;4984169;28;20034;-90
2021/04/10 15:21:17;;;;;;;28.13;11.73;;;8.30;89.10;;;;;;4984377;28;20018;-93
2021/04/10 15:23:43;;;;;;;29.40;12.00;;;8.20;89.00;;;;;;4984517;28;20022;-91
2021/04/10 15:26:09;;;;;;;26.13;11.57;;;8.20;89.30;;;;;;4983991;28;20019;-90
2021/04/10 15:28:35;;;;;;;25.53;11.43;;;8.20;89.30;;;;;;4984306;28;20115;-91
2021/04/10 15:31:06;;;;;;;29.80;12.27;;;8.20;89.60;;;;;;4984489;28;20023;-91
2021/04/10 15:33:46;;;;;;;26.97;11.93;;;8.30;89.70;;;;;;4984313;28;20015;-90
2021/04/10 15:36:15;;;;;;;26.00;11.57;;;8.30;90.00;;;;;;4984217;28;20032;-91
2021/04/10 15:38:44;;;;;;;26.60;12.10;;;8.30;89.90;;;;;;4983974;28;20062;-91
2021/04/10 15:41:14;;;;;;;27.98;12.20;;;8.30;90.00;;;;;;4984212;28;20019;-91
2021/04/10 15:43:40;;;;;;;26.57;13.13;;;8.30;90.10;;;;;;4984284;28;20047;-91
2021/04/10 15:46:06;;;;;;;25.87;12.70;;;8.30;90.10;;;;;;4983805;28;20018;-91
2021/04/10 15:48:31;;;;;;;26.00;13.67;;;8.30;90.10;;;;;;4984163;28;20015;-91
2021/04/10 15:50:57;;;;;;;28.67;13.03;;;8.30;90.10;;;;;;4984091;28;20031;-92
2021/04/10 15:53:25;;;;;;;29.13;13.83;;;8.30;90.20;;;;;;4983974;28;20011;-91
2021/04/10 15:55:52;;;;;;;26.33;13.00;;;8.30;90.20;;;;;;4983898;28;20082;-91
2021/04/10 15:58:17;;;;;;;28.93;13.13;;;8.40;90.20;;;;;;4983870;28;20035;-90
2021/04/10 16:00:43;;;;;;;27.40;13.33;;;8.30;90.20;;;;;;4983986;28;20087;-92
2021/04/10 16:03:09;;;;;;;28.93;13.87;;;8.30;90.20;;;;;;4983878;28;20023;-90
2021/04/10 16:05:35;;;;;;;31.03;13.40;;;8.30;90.20;;;;;;4983625;28;20022;-90
2021/04/10 16:08:00;;;;;;;29.73;13.43;;;8.30;90.30;;;;;;4983677;28;20019;-90
2021/04/10 16:10:26;;;;;;;27.63;12.80;;;8.30;90.50;;;;;;4983838;28;20031;-91
2021/04/10 16:12:52;;;;;;;30.53;13.73;;;8.30;90.30;;;;;;4984041;28;20021;-90
2021/04/10 16:15:18;;;;;;;29.57;14.57;;;8.30;90.30;;;;;;4983503;28;20022;-91
2021/04/10 16:17:43;;;;;;;26.00;13.10;;;8.30;90.30;;;;;;4983746;28;20042;-90
2021/04/10 16:20:09;;;;;;;27.40;13.53;;;8.30;90.60;;;;;;4983698;28;20022;-93
2021/04/10 16:22:35;;;;;;;29.83;14.50;;;8.30;90.40;;;;;;4983723;28;20094;-91
2021/04/10 16:25:01;;;;;;;26.53;13.73;;;8.30;90.30;;;;;;4983166;28;20022;-90
2021/04/10 16:27:26;;;;;;;29.43;14.47;;;8.30;90.40;;;;;;4983484;28;20018;-90
2021/04/10 16:29:52;;;;;;;28.40;13.90;;;8.20;90.40;;;;;;4983513;28;20026;-89
2021/04/10 16:32:18;;;;;;;26.47;14.30;;;8.20;90.50;;;;;;4983611;28;20043;-91
2021/04/10 16:34:43;;;;;;;27.93;15.27;;;8.30;90.60;;;;;;4983471;28;20102;-91
2021/04/10 16:37:09;;;;;;;27.17;15.67;;;8.30;90.50;;;;;;4983306;28;20018;-90
2021/04/10 16:39:35;;;;;;;31.10;15.27;;;8.30;90.70;;;;;;4983056;28;20070;-90
2021/04/10 16:42:00;;;;;;;25.87;15.97;;;8.20;90.60;;;;;;4983508;28;20015;-89
2021/04/10 16:44:26;;;;;;;30.40;17.83;;;8.30;90.70;;;;;;4983318;28;20079;-91
2021/04/10 16:46:52;;;;;;;27.70;15.80;;;8.30;90.70;;;;;;4982873;28;20007;-91
2021/04/10 16:49:17;;;;;;;31.73;17.23;;;8.30;90.80;;;;;;4982895;28;20063;-89
2021/04/10 16:51:43;;;;;;;35.00;16.90;;;8.30;90.80;;;;;;4983417;28;20070;-91
2021/04/10 16:54:09;;;;;;;33.20;17.80;;;8.30;90.90;;;;;;4983166;28;20022;-91
2021/04/10 16:56:34;;;;;;;31.33;17.63;;;8.20;90.90;;;;;;4982704;28;20023;-90
2021/04/10 16:59:00;;;;;;;34.30;18.20;;;8.20;91.00;;;;;;4982951;28;20018;-90
2021/04/10 17:01:26;;;;;;;35.60;19.13;;;8.20;91.00;;;;;;4983029;28;20015;-90
2021/04/10 17:03:53;;;;;;;32.47;18.27;;;8.20;91.00;;;;;;4983035;28;20027;-90
2021/04/10 17:06:19;;;;;;;34.77;20.27;;;8.20;91.10;;;;;;4982872;28;20121;-91
2021/04/10 17:08:45;;;;;;;35.87;18.77;;;8.20;91.00;;;;;;4982970;28;20090;-91
2021/04/10 17:11:12;;;;;;;35.53;20.33;;;8.20;91.10;;;;;;4982962;28;20030;-91
2021/04/10 17:13:38;;;;;;;37.57;21.33;;;8.20;91.20;;;;;;4982971;28;20019;-91
2021/04/10 17:16:04;;;;;;;38.47;21.77;;;8.20;91.20;;;;;;4982823;28;20026;-90
2021/04/10 17:18:30;;;;;;;40.97;22.47;;;8.20;91.30;;;;;;4982908;28;20043;-91
2021/04/10 17:20:56;;;;;;;39.57;22.40;;;8.10;91.50;;;;;;4982957;28;20011;-91
2021/04/10 17:23:22;;;;;;;38.40;23.27;;;8.10;91.30;;;;;;4983080;28;20029;-92
2021/04/10 17:25:49;;;;;;;39.67;23.90;;;8.10;91.30;;;;;;4982698;28;20038;-90
2021/04/10 17:28:16;;;;;;;40.20;23.60;;;8.20;91.50;;;;;;4982755;28;20030;-90
2021/04/10 17:30:42;;;;;;;40.23;23.37;;;8.10;91.40;;;;;;4982762;28;20026;-91
2021/04/10 17:33:10;;;;;;;44.00;24.27;;;8.20;91.50;;;;;;4982958;28;20015;-91
2021/04/10 17:35:37;;;;;;;40.33;23.27;;;8.10;91.50;;;;;;4982659;28;20027;-89
2021/04/10 17:38:03;;;;;;;39.93;24.47;;;8.10;91.60;;;;;;4982590;28;20044;-91
2021/04/10 17:40:29;;;;;;;38.57;21.77;;;8.00;91.50;;;;;;4982566;28;20045;-91
2021/04/10 17:42:54;;;;;;;38.57;22.97;;;8.00;91.70;;;;;;4982799;28;20027;-89
2021/04/10 17:45:24;;;;;;;37.30;22.53;;;8.00;91.60;;;;;;4982422;28;20026;-91
2021/04/10 17:47:49;;;;;;;;;;;8.00;91.70;;;;;;4982904;28;20051;-88
2021/04/10 17:50:17;;;;;;;40.17;22.53;;;8.00;91.70;;;;;;4982637;28;19961;-91
2021/04/10 17:52:44;;;;;;;39.27;22.03;;;8.10;91.70;;;;;;4982812;28;20011;-89
2021/04/10 17:55:12;;;;;;;37.77;21.83;;;8.00;91.70;;;;;;4982528;28;20031;-90
2021/04/10 17:57:38;;;;;;;42.17;23.13;;;8.00;91.90;;;;;;4982513;28;20019;-91
2021/04/10 18:00:04;;;;;;;39.03;21.77;;;8.00;91.90;;;;;;4982354;28;20011;-92
2021/04/10 18:02:30;;;;;;;40.33;22.53;;;7.90;92.20;;;;;;4982442;28;20030;-90
2021/04/10 18:04:56;;;;;;;40.50;23.40;;;7.90;92.00;;;;;;4982636;28;20015;-92
2021/04/10 18:07:21;;;;;;;40.20;22.13;;;7.90;92.10;;;;;;4982218;28;20011;-90
2021/04/10 18:09:47;;;;;;;41.17;23.00;;;7.90;92.10;;;;;;4984486;28;20114;-91
2021/04/10 18:12:12;;;;;;;35.67;23.57;;;7.90;92.10;;;;;;4985992;28;20039;-91
2021/04/10 18:14:38;;;;;;;42.17;24.47;;;7.90;92.20;;;;;;4985872;28;20125;-89
2021/04/10 18:17:04;;;;;;;37.83;23.00;;;7.80;92.10;;;;;;4985477;28;20027;-91
2021/04/10 18:19:29;;;;;;;38.90;23.77;;;7.90;92.10;;;;;;4985766;28;20025;-91
2021/04/10 18:21:56;;;;;;;41.37;23.87;;;7.80;92.30;;;;;;4985640;28;20011;-91
2021/04/10 18:24:22;;;;;;;38.60;22.17;;;7.90;92.50;;;;;;4985817;28;20021;-91
2021/04/10 18:26:48;;;;;;;37.80;22.57;;;7.90;92.20;;;;;;4985497;28;20141;-89
2021/04/10 18:29:14;;;;;;;36.03;19.77;;;7.90;92.30;;;;;;4985440;28;20023;-91
2021/04/10 18:31:39;;;;;;;35.40;22.23;;;7.80;92.30;;;;;;4985453;28;20022;-91
2021/04/10 18:34:05;;;;;;;36.33;22.43;;;7.80;92.30;;;;;;4985529;28;20011;-91
2021/04/10 18:36:31;;;;;;;36.00;21.60;;;7.80;92.60;;;;;;4985461;28;20066;-92
2021/04/10 18:38:58;;;;;;;34.43;21.30;;;7.80;92.30;;;;;;4985315;28;20041;-91
2021/04/10 18:41:26;;;;;;;36.30;22.00;;;7.80;92.30;;;;;;4985476;28;20039;-90
2021/04/10 18:43:54;;;;;;;32.03;18.67;;;7.80;92.20;;;;;;4985417;28;20015;-91
2021/04/10 18:46:20;;;;;;;31.00;17.90;;;7.80;92.40;;;;;;4985160;28;20018;-91
2021/04/10 18:48:46;;;;;;;32.80;18.60;;;7.80;92.30;;;;;;4985253;28;20430;-90
2021/04/10 18:51:12;;;;;;;29.13;17.00;;;7.80;92.20;;;;;;4985242;28;20030;-89
2021/04/10 18:53:39;;;;;;;30.80;17.40;;;7.80;92.40;;;;;;4985250;28;20025;-91
2021/04/10 18:56:12;;;;;;;29.90;17.73;;;7.80;92.30;;;;;;4985030;28;20097;-91
2021/04/10 18:58:40;;;;;;;27.57;16.63;;;7.70;92.30;;;;;;4985044;28;20019;-91
2021/04/10 19:01:06;;;;;;;30.73;16.63;;;7.70;92.40;;;;;;4985158;28;20046;-91
2021/04/10 19:03:34;;;;;;;29.23;16.70;;;7.70;92.30;;;;;;4985310;28;20014;-90
2021/04/10 19:06:00;;;;;;;30.07;17.37;;;7.70;92.20;;;;;;4984666;28;20011;-92
2021/04/10 19:08:26;;;;;;;27.50;15.73;;;7.70;92.20;;;;;;4984891;28;20038;-90
2021/04/10 19:10:58;;;;;;;26.27;15.77;;;7.70;92.30;;;;;;4984915;28;20053;-90
2021/04/10 19:13:25;;;;;;;27.10;16.57;;;7.70;92.20;;;;;;4985042;28;20015;-90
2021/04/10 19:15:50;;;;;;;27.43;16.00;;;7.70;92.10;;;;;;4984755;28;20035;-92
2021/04/10 19:18:16;;;;;;;27.57;16.90;;;7.80;92.10;;;;;;4984696;28;20015;-92
2021/04/10 19:20:42;;;;;;;27.43;15.63;;;7.80;92.70;;;;;;4984440;28;20078;-91
2021/04/10 19:23:09;;;;;;;27.13;15.47;;;7.80;92.20;;;;;;4984745;28;20021;-89
2021/04/10 19:25:37;;;;;;;25.50;15.17;;;7.90;92.20;;;;;;4984490;28;20027;-89
2021/04/10 19:28:05;;;;;;;25.55;14.65;;;7.80;92.20;;;;;;4984281;28;20051;-89
2021/04/10 19:30:31;;;;;;;24.67;14.30;;;7.80;92.20;;;;;;4983885;28;20050;-91
2021/04/10 19:32:57;;;;;;;24.13;14.23;;;7.80;92.20;;;;;;4984258;28;20078;-90
2021/04/10 19:35:24;;;;;;;23.83;14.50;;;7.80;92.20;;;;;;4984572;28;20035;-90
2021/04/10 19:37:51;;;;;;;22.47;13.00;;;7.80;92.20;;;;;;4984402;28;20038;-92
2021/04/10 19:40:18;;;;;;;22.23;13.20;;;7.90;92.20;;;;;;4984239;28;20050;-90
2021/04/10 19:42:43;;;;;;;23.80;13.50;;;7.90;92.30;;;;;;4984301;28;20046;-90
2021/04/10 19:45:12;;;;;;;22.60;12.63;;;7.90;92.30;;;;;;4984450;28;20014;-91
2021/04/10 19:47:37;;;;;;;22.63;12.80;;;7.90;92.30;;;;;;4983844;28;20018;-91
2021/04/10 19:50:03;;;;;;;23.00;13.03;;;7.80;92.30;;;;;;4984244;28;20054;-91
2021/04/10 19:52:29;;;;;;;23.53;13.50;;;7.80;92.30;;;;;;4984180;28;20043;-89
2021/04/10 19:54:55;;;;;;;20.93;12.23;;;7.80;92.20;;;;;;4983937;28;20022;-90
2021/04/10 19:57:20;;;;;;;20.23;11.40;;;7.90;92.40;;;;;;4983966;28;20039;-91
2021/04/10 19:59:47;;;;;;;20.87;11.50;;;7.90;92.40;;;;;;4984092;28;20019;-92
2021/04/10 20:02:14;;;;;;;21.33;12.13;;;7.90;92.50;;;;;;4984127;28;20019;-89
2021/04/10 20:04:39;;;;;;;21.67;11.73;;;7.90;92.50;;;;;;4984052;28;20011;-91
2021/04/10 20:07:05;;;;;;;21.13;12.23;;;7.90;92.50;;;;;;4983643;28;20042;-91
2021/04/10 20:09:31;;;;;;;22.07;11.33;;;7.90;92.60;;;;;;4983731;28;20027;-89
2021/04/10 20:11:57;;;;;;;21.87;12.13;;;7.90;92.90;;;;;;4983995;28;20099;-90
2021/04/10 20:14:24;;;;;;;20.57;11.70;;;7.80;92.60;;;;;;4983897;28;20019;-89
2021/04/10 20:16:51;;;;;;;21.77;12.57;;;7.80;92.60;;;;;;4983574;28;20078;-89
2021/04/10 20:19:17;;;;;;;19.63;11.33;;;7.80;92.60;;;;;;4983139;28;20010;-89
2021/04/10 20:21:43;;;;;;;22.73;12.60;;;7.80;92.60;;;;;;4983779;28;20042;-91
2021/04/10 20:24:12;;;;;;;21.97;12.10;;;7.90;92.60;;;;;;4983618;28;20019;-90
2021/04/10 20:26:38;;;;;;;21.13;12.03;;;7.80;92.60;;;;;;4983544;28;20018;-89
2021/04/10 20:29:04;;;;;;;21.37;12.40;;;7.80;92.60;;;;;;4983202;28;20019;-90
2021/04/10 20:31:33;;;;;;;20.53;11.53;;;7.80;92.60;;;;;;4982810;28;20039;-91
2021/04/10 20:34:08;;;;;;;22.90;12.45;;;7.80;92.60;;;;;;4983361;28;20086;-90
2021/04/10 20:36:47;;;;;;;21.97;12.67;;;7.80;93.00;;;;;;4983220;28;20091;-91
2021/04/10 20:39:14;;;;;;;;;;;7.80;92.60;;;;;;4983474;28;20034;-90
2021/04/10 20:41:43;;;;;;;20.13;12.10;;;7.80;92.50;;;;;;4983465;28;19937;-90
2021/04/10 20:44:09;;;;;;;21.75;11.80;;;7.80;92.60;;;;;;4983060;28;20015;-91
2021/04/10 20:46:35;;;;;;;21.33;12.43;;;7.80;92.50;;;;;;4983152;28;20050;-90
2021/04/10 20:49:00;;;;;;;22.47;13.23;;;7.80;92.50;;;;;;4982938;28;20031;-89
2021/04/10 20:51:26;;;;;;;22.10;12.47;;;7.80;92.50;;;;;;4983279;28;20030;-90
2021/04/10 20:53:52;;;;;;;23.80;13.57;;;7.80;92.50;;;;;;4983117;28;20018;-90
2021/04/10 20:56:18;;;;;;;22.47;13.07;;;7.90;92.60;;;;;;4983009;28;20082;-90
2021/04/10 20:58:44;;;;;;;21.70;12.13;;;7.90;92.60;;;;;;4983102;28;20011;-91
2021/04/10 21:01:10;;;;;;;23.17;14.30;;;7.90;92.70;;;;;;4983068;28;20011;-90
2021/04/10 21:03:36;;;;;;;23.63;14.10;;;7.90;92.60;;;;;;4983014;28;20074;-88
2021/04/10 21:06:04;;;;;;;23.17;13.57;;;7.90;92.70;;;;;;4983099;28;20015;-90
2021/04/10 21:08:30;;;;;;;23.83;14.70;;;7.90;92.70;;;;;;4982507;28;20035;-89
2021/04/10 21:10:57;;;;;;;22.40;14.17;;;7.90;92.70;;;;;;4983092;28;20027;-91
2021/04/10 21:13:24;;;;;;;23.97;13.80;;;7.90;92.70;;;;;;4982996;28;20017;-88
2021/04/10 21:15:51;;;;;;;23.70;15.00;;;7.90;92.80;;;;;;4982963;28;20050;-91